sensor_id;sensor_type;location;lat;lon;timestamp;pressure;altitude;pressure_sealevel;temperature
48628;BMP280;34424;52.234;6.500;2023-10-31T00:04:16;99226.9;;;10.59
48628;BMP280;34424;52.234;6.500;2023-10-31T00:09:16;99232.7;;;10.59
48628;BMP280;34424;52.234;6.500;2023-10-31T00:14:17;99230.59;;;10.6
48628;BMP280;34424;52.234;6.500;2023-10-31T00:19:16;99231.75;;;10.6
48628;BMP280;34424;52.234;6.500;2023-10-31T00:24:16;99234.94;;;10.59
48628;BMP280;34424;52.234;6.500;2023-10-31T00:29:16;99230.71;;;10.59
48628;BMP280;34424;52.234;6.500;2023-10-31T00:34:16;99232.86;;;10.59
48628;BMP280;34424;52.234;6.500;2023-10-31T00:39:16;99237.7;;;10.58
48628;BMP280;34424;52.234;6.500;2023-10-31T00:44:16;99237.95;;;10.58
48628;BMP280;34424;52.234;6.500;2023-10-31T00:49:16;99270.2;;;9.78
48628;BMP280;34424;52.234;6.500;2023-10-31T00:54:16;99296.05;;;9.07
48628;BMP280;34424;52.234;6.500;2023-10-31T00:59:16;99309.59;;;8.82
48628;BMP280;34424;52.234;6.500;2023-10-31T01:04:16;99327.99;;;8.48
48628;BMP280;34424;52.234;6.500;2023-10-31T01:09:16;99339.78;;;8.3
48628;BMP280;34424;52.234;6.500;2023-10-31T01:14:16;99356;;;8.13
48628;BMP280;34424;52.234;6.500;2023-10-31T01:19:16;99364.48;;;8.06
48628;BMP280;34424;52.234;6.500;2023-10-31T01:24:16;99380.77;;;8.03
48628;BMP280;34424;52.234;6.500;2023-10-31T01:29:16;99384;;;8.01
48628;BMP280;34424;52.234;6.500;2023-10-31T01:34:16;99392.92;;;7.96
48628;BMP280;34424;52.234;6.500;2023-10-31T01:39:16;99408.21;;;7.88
48628;BMP280;34424;52.234;6.500;2023-10-31T01:44:16;99428.45;;;7.87
48628;BMP280;34424;52.234;6.500;2023-10-31T01:49:16;99457.27;;;7.89
48628;BMP280;34424;52.234;6.500;2023-10-31T01:54:16;99467.25;;;7.86
48628;BMP280;34424;52.234;6.500;2023-10-31T01:59:16;99463.71;;;7.89
48628;BMP280;34424;52.234;6.500;2023-10-31T02:04:17;99468.47;;;7.92
48628;BMP280;34424;52.234;6.500;2023-10-31T02:09:16;99462.67;;;7.93
48628;BMP280;34424;52.234;6.500;2023-10-31T02:14:16;99467.79;;;7.95
48628;BMP280;34424;52.234;6.500;2023-10-31T02:19:18;99484.44;;;7.96
48628;BMP280;34424;52.234;6.500;2023-10-31T02:24:16;99489.01;;;8.01
48628;BMP280;34424;52.234;6.500;2023-10-31T02:29:16;99491.3;;;8.03
48628;BMP280;34424;52.234;6.500;2023-10-31T02:34:17;99504.78;;;8.05
48628;BMP280;34424;52.234;6.500;2023-10-31T02:39:16;99511.03;;;8.09
48628;BMP280;34424;52.234;6.500;2023-10-31T02:44:16;99520.16;;;8.04
48628;BMP280;34424;52.234;6.500;2023-10-31T02:49:16;99525.32;;;8.05
48628;BMP280;34424;52.234;6.500;2023-10-31T02:54:16;99533.62;;;8.05
48628;BMP280;34424;52.234;6.500;2023-10-31T02:59:16;99537.58;;;8.02
48628;BMP280;34424;52.234;6.500;2023-10-31T03:04:16;99538.69;;;7.98
48628;BMP280;34424;52.234;6.500;2023-10-31T03:09:16;99542.09;;;7.95
48628;BMP280;34424;52.234;6.500;2023-10-31T03:14:16;99548.68;;;7.9
48628;BMP280;34424;52.234;6.500;2023-10-31T03:19:16;99553.84;;;7.9
48628;BMP280;34424;52.234;6.500;2023-10-31T03:24:20;99556.75;;;7.91
48628;BMP280;34424;52.234;6.500;2023-10-31T03:29:16;99560.71;;;7.93
48628;BMP280;34424;52.234;6.500;2023-10-31T03:34:16;99558.4;;;7.91
48628;BMP280;34424;52.234;6.500;2023-10-31T03:39:16;99560.36;;;7.92
48628;BMP280;34424;52.234;6.500;2023-10-31T03:44:16;99562.31;;;7.84
48628;BMP280;34424;52.234;6.500;2023-10-31T03:49:17;99574.25;;;7.77
48628;BMP280;34424;52.234;6.500;2023-10-31T03:54:16;99580.83;;;7.7
48628;BMP280;34424;52.234;6.500;2023-10-31T03:59:16;99589.34;;;7.59
48628;BMP280;34424;52.234;6.500;2023-10-31T04:04:16;99592.55;;;7.57
48628;BMP280;34424;52.234;6.500;2023-10-31T04:09:16;99591.83;;;7.54
48628;BMP280;34424;52.234;6.500;2023-10-31T04:14:17;99599.71;;;7.45
48628;BMP280;34424;52.234;6.500;2023-10-31T04:19:16;99601.67;;;7.41
48628;BMP280;34424;52.234;6.500;2023-10-31T04:24:16;99603.78;;;7.43
48628;BMP280;34424;52.234;6.500;2023-10-31T04:29:17;99611.69;;;7.42
48628;BMP280;34424;52.234;6.500;2023-10-31T04:34:16;99615.66;;;7.42
48628;BMP280;34424;52.234;6.500;2023-10-31T04:39:17;99621.2;;;7.45
48628;BMP280;34424;52.234;6.500;2023-10-31T04:44:16;99626.32;;;7.48
48628;BMP280;34424;52.234;6.500;2023-10-31T04:49:16;99633.78;;;7.51
48628;BMP280;34424;52.234;6.500;2023-10-31T04:54:16;99641.12;;;7.53
48628;BMP280;34424;52.234;6.500;2023-10-31T04:59:16;99648.62;;;7.62
48628;BMP280;34424;52.234;6.500;2023-10-31T05:04:16;99653.69;;;7.65
48628;BMP280;34424;52.234;6.500;2023-10-31T05:09:17;99660.61;;;7.67
48628;BMP280;34424;52.234;6.500;2023-10-31T05:14:17;99669.96;;;7.73
48628;BMP280;34424;52.234;6.500;2023-10-31T05:19:18;99674.94;;;7.77
48628;BMP280;34424;52.234;6.500;2023-10-31T05:24:16;99681.27;;;7.79
48628;BMP280;34424;52.234;6.500;2023-10-31T05:29:16;99681.8;;;7.76
48628;BMP280;34424;52.234;6.500;2023-10-31T05:34:16;99684.23;;;7.77
48628;BMP280;34424;52.234;6.500;2023-10-31T05:39:16;99695.25;;;7.72
48628;BMP280;34424;52.234;6.500;2023-10-31T05:44:16;99695.38;;;7.68
48628;BMP280;34424;52.234;6.500;2023-10-31T05:49:16;99701.2;;;7.63
48628;BMP280;34424;52.234;6.500;2023-10-31T05:54:16;99710.39;;;7.63
48628;BMP280;34424;52.234;6.500;2023-10-31T05:59:16;99720.42;;;7.6
48628;BMP280;34424;52.234;6.500;2023-10-31T06:04:17;99726.8;;;7.57
48628;BMP280;34424;52.234;6.500;2023-10-31T06:09:16;99732.91;;;7.6
48628;BMP280;34424;52.234;6.500;2023-10-31T06:14:16;99740.11;;;7.57
48628;BMP280;34424;52.234;6.500;2023-10-31T06:19:16;99740.77;;;7.57
48628;BMP280;34424;52.234;6.500;2023-10-31T06:24:18;99746.38;;;7.57
48628;BMP280;34424;52.234;6.500;2023-10-31T06:29:16;99752.41;;;7.57
48628;BMP280;34424;52.234;6.500;2023-10-31T06:34:16;99762.9;;;7.58
48628;BMP280;34424;52.234;6.500;2023-10-31T06:39:16;99764.8;;;7.58
48628;BMP280;34424;52.234;6.500;2023-10-31T06:44:16;99768.27;;;7.58
48628;BMP280;34424;52.234;6.500;2023-10-31T06:49:17;99780.34;;;7.61
48628;BMP280;34424;52.234;6.500;2023-10-31T06:54:17;99787.52;;;7.65
48628;BMP280;34424;52.234;6.500;2023-10-31T06:59:16;99794.45;;;7.67
48628;BMP280;34424;52.234;6.500;2023-10-31T07:04:17;99796.55;;;7.75
48628;BMP280;34424;52.234;6.500;2023-10-31T07:09:16;99804.24;;;7.76
48628;BMP280;34424;52.234;6.500;2023-10-31T07:14:19;99804.44;;;7.77
48628;BMP280;34424;52.234;6.500;2023-10-31T07:19:16;99805.97;;;7.76
48628;BMP280;34424;52.234;6.500;2023-10-31T07:24:17;99813.22;;;7.78
48628;BMP280;34424;52.234;6.500;2023-10-31T07:29:16;99823.95;;;7.89
48628;BMP280;34424;52.234;6.500;2023-10-31T07:34:18;99821.92;;;7.99
48628;BMP280;34424;52.234;6.500;2023-10-31T07:39:16;99828.78;;;8.15
48628;BMP280;34424;52.234;6.500;2023-10-31T07:44:16;99840.82;;;8.29
48628;BMP280;34424;52.234;6.500;2023-10-31T07:49:16;99842.47;;;8.35
48628;BMP280;34424;52.234;6.500;2023-10-31T07:54:16;99843.34;;;9.05
48628;BMP280;34424;52.234;6.500;2023-10-31T07:59:18;99849.2;;;10.27
48628;BMP280;34424;52.234;6.500;2023-10-31T08:04:16;99851.41;;;9.56
48628;BMP280;34424;52.234;6.500;2023-10-31T08:09:16;99858.77;;;9.49
48628;BMP280;34424;52.234;6.500;2023-10-31T08:14:16;99860.5;;;9.43
48628;BMP280;34424;52.234;6.500;2023-10-31T08:19:17;99858.66;;;9.41
48628;BMP280;34424;52.234;6.500;2023-10-31T08:24:16;99858.93;;;9.68
48628;BMP280;34424;52.234;6.500;2023-10-31T08:29:16;99862.46;;;10.27
48628;BMP280;34424;52.234;6.500;2023-10-31T08:34:16;99867.39;;;10.03
48628;BMP280;34424;52.234;6.500;2023-10-31T08:39:16;99873.13;;;9.73
48628;BMP280;34424;52.234;6.500;2023-10-31T08:44:16;99881.91;;;9.85
48628;BMP280;34424;52.234;6.500;2023-10-31T08:49:16;99895.71;;;9.77
48628;BMP280;34424;52.234;6.500;2023-10-31T08:54:16;99901.08;;;9.67
48628;BMP280;34424;52.234;6.500;2023-10-31T08:59:16;99911.19;;;9.67
48628;BMP280;34424;52.234;6.500;2023-10-31T09:04:16;99917.84;;;9.56
48628;BMP280;34424;52.234;6.500;2023-10-31T09:09:16;99921.09;;;9.6
48628;BMP280;34424;52.234;6.500;2023-10-31T09:14:17;99924.19;;;9.98
48628;BMP280;34424;52.234;6.500;2023-10-31T09:19:16;99930.02;;;10.12
48628;BMP280;34424;52.234;6.500;2023-10-31T09:24:16;99940.95;;;9.87
48628;BMP280;34424;52.234;6.500;2023-10-31T09:29:16;99943.24;;;9.8
48628;BMP280;34424;52.234;6.500;2023-10-31T09:34:19;99949.47;;;11.87
48628;BMP280;34424;52.234;6.500;2023-10-31T09:39:16;99958.03;;;12.55
48628;BMP280;34424;52.234;6.500;2023-10-31T09:44:17;99969.45;;;11.88
48628;BMP280;34424;52.234;6.500;2023-10-31T09:49:16;99978.45;;;11.11
48628;BMP280;34424;52.234;6.500;2023-10-31T09:54:17;99980.48;;;10.85
48628;BMP280;34424;52.234;6.500;2023-10-31T09:59:17;99994.56;;;11.22
48628;BMP280;34424;52.234;6.500;2023-10-31T10:04:16;99995.72;;;11.34
48628;BMP280;34424;52.234;6.500;2023-10-31T10:09:16;100008;;;10.86
48628;BMP280;34424;52.234;6.500;2023-10-31T10:14:16;100009.9;;;11.27
48628;BMP280;34424;52.234;6.500;2023-10-31T10:19:20;100001.8;;;14.81
48628;BMP280;34424;52.234;6.500;2023-10-31T10:24:16;100014.5;;;17.03
48628;BMP280;34424;52.234;6.500;2023-10-31T10:29:16;100020.3;;;16.48
48628;BMP280;34424;52.234;6.500;2023-10-31T10:34:18;100014.8;;;19.13
48628;BMP280;34424;52.234;6.500;2023-10-31T10:39:18;100020.1;;;19.06
48628;BMP280;34424;52.234;6.500;2023-10-31T10:44:16;100025.3;;;19.13
48628;BMP280;34424;52.234;6.500;2023-10-31T10:49:16;100039.7;;;18.23
48628;BMP280;34424;52.234;6.500;2023-10-31T10:54:18;100044.7;;;17.29
48628;BMP280;34424;52.234;6.500;2023-10-31T10:59:18;100043.1;;;16.56
48628;BMP280;34424;52.234;6.500;2023-10-31T11:04:16;100048.5;;;14.41
48628;BMP280;34424;52.234;6.500;2023-10-31T11:09:17;100052.7;;;13.81
48628;BMP280;34424;52.234;6.500;2023-10-31T11:14:17;100054.2;;;13.97
48628;BMP280;34424;52.234;6.500;2023-10-31T11:19:16;100057.8;;;13.65
48628;BMP280;34424;52.234;6.500;2023-10-31T11:24:18;100060.6;;;13.89
48628;BMP280;34424;52.234;6.500;2023-10-31T11:29:16;100061.7;;;13.41
48628;BMP280;34424;52.234;6.500;2023-10-31T11:34:17;100069.5;;;13.61
48628;BMP280;34424;52.234;6.500;2023-10-31T11:39:17;100069.2;;;14.2
48628;BMP280;34424;52.234;6.500;2023-10-31T11:44:17;100079.1;;;13.79
48628;BMP280;34424;52.234;6.500;2023-10-31T11:49:18;100081.7;;;13.8
48628;BMP280;34424;52.234;6.500;2023-10-31T11:54:16;100080.2;;;14.34
48628;BMP280;34424;52.234;6.500;2023-10-31T11:59:16;100078.8;;;13.94
48628;BMP280;34424;52.234;6.500;2023-10-31T12:04:27;100083.4;;;13.1
48628;BMP280;34424;52.234;6.500;2023-10-31T12:09:16;100087;;;12.83
48628;BMP280;34424;52.234;6.500;2023-10-31T12:14:17;100094.3;;;12.6
48628;BMP280;34424;52.234;6.500;2023-10-31T12:19:17;100106;;;12.42
48628;BMP280;34424;52.234;6.500;2023-10-31T12:24:17;100101.5;;;12.04
48628;BMP280;34424;52.234;6.500;2023-10-31T12:29:17;100099.7;;;12.28
48628;BMP280;34424;52.234;6.500;2023-10-31T12:34:17;100105.7;;;12.21
48628;BMP280;34424;52.234;6.500;2023-10-31T12:39:17;100107.9;;;11.66
48628;BMP280;34424;52.234;6.500;2023-10-31T12:44:17;100103;;;11.46
48628;BMP280;34424;52.234;6.500;2023-10-31T12:49:17;100091.1;;;11.11
48628;BMP280;34424;52.234;6.500;2023-10-31T12:54:17;100088.2;;;10.87
48628;BMP280;34424;52.234;6.500;2023-10-31T12:59:17;100089.5;;;10.78
48628;BMP280;34424;52.234;6.500;2023-10-31T13:04:23;100109.8;;;10.58
48628;BMP280;34424;52.234;6.500;2023-10-31T13:09:16;100119.8;;;10.47
48628;BMP280;34424;52.234;6.500;2023-10-31T13:14:16;100134.9;;;10.42
48628;BMP280;34424;52.234;6.500;2023-10-31T13:19:17;100147;;;10.37
48628;BMP280;34424;52.234;6.500;2023-10-31T13:24:17;100151.7;;;10.3
48628;BMP280;34424;52.234;6.500;2023-10-31T13:29:17;100156.7;;;10.15
48628;BMP280;34424;52.234;6.500;2023-10-31T13:34:16;100165.2;;;10.12
48628;BMP280;34424;52.234;6.500;2023-10-31T13:39:25;100168;;;10.17
48628;BMP280;34424;52.234;6.500;2023-10-31T13:44:25;100171.7;;;10.29
48628;BMP280;34424;52.234;6.500;2023-10-31T13:49:25;100189.3;;;10.31
48628;BMP280;34424;52.234;6.500;2023-10-31T13:54:25;100192.8;;;9.9
48628;BMP280;34424;52.234;6.500;2023-10-31T13:59:25;100194.7;;;9.49
48628;BMP280;34424;52.234;6.500;2023-10-31T14:04:25;100196.7;;;9.41
48628;BMP280;34424;52.234;6.500;2023-10-31T14:09:25;100200.9;;;9.42
48628;BMP280;34424;52.234;6.500;2023-10-31T14:14:25;100195.4;;;9.45
48628;BMP280;34424;52.234;6.500;2023-10-31T14:19:25;100196;;;9.41
48628;BMP280;34424;52.234;6.500;2023-10-31T14:24:26;100202;;;9.33
48628;BMP280;34424;52.234;6.500;2023-10-31T14:29:25;100201.7;;;9.35
48628;BMP280;34424;52.234;6.500;2023-10-31T14:34:25;100206.7;;;9.35
48628;BMP280;34424;52.234;6.500;2023-10-31T14:39:25;100209.6;;;9.37
48628;BMP280;34424;52.234;6.500;2023-10-31T14:44:25;100217.2;;;9.13
48628;BMP280;34424;52.234;6.500;2023-10-31T14:49:25;100222.2;;;9.04
48628;BMP280;34424;52.234;6.500;2023-10-31T14:54:25;100226.6;;;8.96
48628;BMP280;34424;52.234;6.500;2023-10-31T15:01:55;100234.7;;;8.74
48628;BMP280;34424;52.234;6.500;2023-10-31T15:06:55;100242.1;;;8.67
48628;BMP280;34424;52.234;6.500;2023-10-31T15:11:55;100238.9;;;8.63
48628;BMP280;34424;52.234;6.500;2023-10-31T15:16:55;100242.3;;;8.62
48628;BMP280;34424;52.234;6.500;2023-10-31T15:21:55;100240.8;;;8.6
48628;BMP280;34424;52.234;6.500;2023-10-31T15:26:55;100257.2;;;8.63
48628;BMP280;34424;52.234;6.500;2023-10-31T15:31:55;100266.8;;;8.57
48628;BMP280;34424;52.234;6.500;2023-10-31T15:36:55;100273.5;;;8.54
48628;BMP280;34424;52.234;6.500;2023-10-31T15:41:55;100276.3;;;8.55
48628;BMP280;34424;52.234;6.500;2023-10-31T15:46:55;100286.8;;;8.58
48628;BMP280;34424;52.234;6.500;2023-10-31T15:51:55;100288.5;;;8.58
48628;BMP280;34424;52.234;6.500;2023-10-31T15:56:55;100286.8;;;8.55
48628;BMP280;34424;52.234;6.500;2023-10-31T16:01:55;100291.5;;;8.57
48628;BMP280;34424;52.234;6.500;2023-10-31T16:06:55;100293.6;;;8.56
48628;BMP280;34424;52.234;6.500;2023-10-31T16:11:55;100287.9;;;8.54
48628;BMP280;34424;52.234;6.500;2023-10-31T16:16:55;100296;;;8.48
48628;BMP280;34424;52.234;6.500;2023-10-31T16:21:55;100304.9;;;8.46
48628;BMP280;34424;52.234;6.500;2023-10-31T16:26:55;100308.7;;;8.46
48628;BMP280;34424;52.234;6.500;2023-10-31T16:31:55;100304.8;;;8.47
48628;BMP280;34424;52.234;6.500;2023-10-31T16:36:55;100307.8;;;8.45
48628;BMP280;34424;52.234;6.500;2023-10-31T16:41:55;100306.3;;;8.46
48628;BMP280;34424;52.234;6.500;2023-10-31T16:46:55;100311;;;8.47
48628;BMP280;34424;52.234;6.500;2023-10-31T16:51:55;100312.6;;;8.51
48628;BMP280;34424;52.234;6.500;2023-10-31T16:56:55;100320.8;;;8.5
48628;BMP280;34424;52.234;6.500;2023-10-31T17:01:55;100330.6;;;8.53
48628;BMP280;34424;52.234;6.500;2023-10-31T17:06:55;100332;;;8.53
48628;BMP280;34424;52.234;6.500;2023-10-31T17:11:55;100340.4;;;8.56
48628;BMP280;34424;52.234;6.500;2023-10-31T17:16:55;100342.7;;;8.54
48628;BMP280;34424;52.234;6.500;2023-10-31T17:21:55;100353.8;;;8.54
48628;BMP280;34424;52.234;6.500;2023-10-31T17:26:55;100354.3;;;8.56
48628;BMP280;34424;52.234;6.500;2023-10-31T17:31:55;100362.4;;;8.6
48628;BMP280;34424;52.234;6.500;2023-10-31T17:36:55;100371.8;;;8.53
48628;BMP280;34424;52.234;6.500;2023-10-31T17:41:55;100376.3;;;8.52
48628;BMP280;34424;52.234;6.500;2023-10-31T17:46:55;100375.1;;;8.49
48628;BMP280;34424;52.234;6.500;2023-10-31T17:51:55;100378;;;8.48
48628;BMP280;34424;52.234;6.500;2023-10-31T17:56:55;100382.1;;;8.47
48628;BMP280;34424;52.234;6.500;2023-10-31T18:01:55;100379.2;;;8.56
48628;BMP280;34424;52.234;6.500;2023-10-31T18:06:55;100378.8;;;8.52
48628;BMP280;34424;52.234;6.500;2023-10-31T18:11:55;100379.5;;;8.49
48628;BMP280;34424;52.234;6.500;2023-10-31T18:16:55;100381.4;;;8.49
48628;BMP280;34424;52.234;6.500;2023-10-31T18:21:55;100378.6;;;8.5
48628;BMP280;34424;52.234;6.500;2023-10-31T18:26:55;100378.2;;;8.47
48628;BMP280;34424;52.234;6.500;2023-10-31T18:31:55;100380.2;;;8.56
48628;BMP280;34424;52.234;6.500;2023-10-31T18:36:55;100388.9;;;8.58
48628;BMP280;34424;52.234;6.500;2023-10-31T18:41:55;100391.2;;;8.62
48628;BMP280;34424;52.234;6.500;2023-10-31T18:46:55;100391.4;;;8.67
48628;BMP280;34424;52.234;6.500;2023-10-31T18:51:55;100393.4;;;8.67
48628;BMP280;34424;52.234;6.500;2023-10-31T18:56:55;100390.7;;;8.7
48628;BMP280;34424;52.234;6.500;2023-10-31T19:01:55;100386.6;;;8.73
48628;BMP280;34424;52.234;6.500;2023-10-31T19:06:55;100385.8;;;8.76
48628;BMP280;34424;52.234;6.500;2023-10-31T19:11:55;100379.5;;;8.77
48628;BMP280;34424;52.234;6.500;2023-10-31T19:16:55;100378.5;;;8.79
48628;BMP280;34424;52.234;6.500;2023-10-31T19:21:55;100380.5;;;8.78
48628;BMP280;34424;52.234;6.500;2023-10-31T19:26:55;100381.2;;;8.73
48628;BMP280;34424;52.234;6.500;2023-10-31T19:31:55;100381.6;;;8.67
48628;BMP280;34424;52.234;6.500;2023-10-31T19:36:55;100381.8;;;8.68
48628;BMP280;34424;52.234;6.500;2023-10-31T19:41:55;100371.6;;;8.67
48628;BMP280;34424;52.234;6.500;2023-10-31T19:46:55;100376.5;;;8.55
48628;BMP280;34424;52.234;6.500;2023-10-31T19:51:55;100383;;;8.33
48628;BMP280;34424;52.234;6.500;2023-10-31T19:56:55;100378.4;;;8.12
48628;BMP280;34424;52.234;6.500;2023-10-31T20:01:55;100375.3;;;8.01
48628;BMP280;34424;52.234;6.500;2023-10-31T20:06:55;100361.5;;;8.02
48628;BMP280;34424;52.234;6.500;2023-10-31T20:11:55;100360.6;;;8.02
48628;BMP280;34424;52.234;6.500;2023-10-31T20:16:55;100360.3;;;8.05
48628;BMP280;34424;52.234;6.500;2023-10-31T20:21:55;100366.5;;;8.13
48628;BMP280;34424;52.234;6.500;2023-10-31T20:26:55;100373;;;8.26
48628;BMP280;34424;52.234;6.500;2023-10-31T20:31:55;100380.4;;;8.36
48628;BMP280;34424;52.234;6.500;2023-10-31T20:36:55;100375.5;;;8.43
48628;BMP280;34424;52.234;6.500;2023-10-31T20:41:55;100362.8;;;8.48
48628;BMP280;34424;52.234;6.500;2023-10-31T20:46:55;100375;;;8.48
48628;BMP280;34424;52.234;6.500;2023-10-31T20:51:55;100377.5;;;8.48
48628;BMP280;34424;52.234;6.500;2023-10-31T20:56:55;100380.9;;;8.55
48628;BMP280;34424;52.234;6.500;2023-10-31T21:01:55;100385.4;;;8.59
48628;BMP280;34424;52.234;6.500;2023-10-31T21:06:55;100364.5;;;8.62
48628;BMP280;34424;52.234;6.500;2023-10-31T21:11:55;100357.1;;;8.61
48628;BMP280;34424;52.234;6.500;2023-10-31T21:16:55;100358.5;;;8.63
48628;BMP280;34424;52.234;6.500;2023-10-31T21:21:55;100352.1;;;8.63
48628;BMP280;34424;52.234;6.500;2023-10-31T21:26:55;100356.7;;;8.68
48628;BMP280;34424;52.234;6.500;2023-10-31T21:31:55;100363;;;8.69
48628;BMP280;34424;52.234;6.500;2023-10-31T21:36:55;100366.2;;;8.77
48628;BMP280;34424;52.234;6.500;2023-10-31T21:41:55;100366.5;;;8.77
48628;BMP280;34424;52.234;6.500;2023-10-31T21:46:55;100356.8;;;8.73
48628;BMP280;34424;52.234;6.500;2023-10-31T21:51:55;100365.7;;;8.73
48628;BMP280;34424;52.234;6.500;2023-10-31T21:56:55;100362.9;;;8.77
48628;BMP280;34424;52.234;6.500;2023-10-31T22:01:55;100352.8;;;8.77
48628;BMP280;34424;52.234;6.500;2023-10-31T22:06:55;100346.7;;;8.75
48628;BMP280;34424;52.234;6.500;2023-10-31T22:11:55;100344.8;;;8.74
48628;BMP280;34424;52.234;6.500;2023-10-31T22:16:55;100339.5;;;8.7
48628;BMP280;34424;52.234;6.500;2023-10-31T22:21:55;100347.6;;;8.73
48628;BMP280;34424;52.234;6.500;2023-10-31T22:26:55;100352.4;;;8.76
48628;BMP280;34424;52.234;6.500;2023-10-31T22:31:55;100335.8;;;8.77
48628;BMP280;34424;52.234;6.500;2023-10-31T22:36:55;100349.1;;;8.74
48628;BMP280;34424;52.234;6.500;2023-10-31T22:41:55;100348.2;;;8.78
48628;BMP280;34424;52.234;6.500;2023-10-31T22:46:55;100343.3;;;8.81
48628;BMP280;34424;52.234;6.500;2023-10-31T22:51:55;100331.9;;;8.83
48628;BMP280;34424;52.234;6.500;2023-10-31T22:56:55;100319.8;;;8.82
48628;BMP280;34424;52.234;6.500;2023-10-31T23:01:55;100327.8;;;8.9
48628;BMP280;34424;52.234;6.500;2023-10-31T23:06:55;100305.8;;;8.97
48628;BMP280;34424;52.234;6.500;2023-10-31T23:11:55;100342.7;;;8.96
48628;BMP280;34424;52.234;6.500;2023-10-31T23:16:55;100349.1;;;8.88
48628;BMP280;34424;52.234;6.500;2023-10-31T23:21:55;100334.4;;;8.48
48628;BMP280;34424;52.234;6.500;2023-10-31T23:26:55;100328.9;;;8.29
48628;BMP280;34424;52.234;6.500;2023-10-31T23:31:55;100335.3;;;8.14
48628;BMP280;34424;52.234;6.500;2023-10-31T23:36:55;100336.6;;;8.05
48628;BMP280;34424;52.234;6.500;2023-10-31T23:41:55;100332.8;;;8.06
48628;BMP280;34424;52.234;6.500;2023-10-31T23:46:55;100328.2;;;8.1
48628;BMP280;34424;52.234;6.500;2023-10-31T23:51:55;100336.1;;;8.17
48628;BMP280;34424;52.234;6.500;2023-10-31T23:56:55;100329.4;;;8.37
